ADDS METAR Data INFO
IDs: Format: Raw Decoded Include TAF

Data at: 1139 UTC 17 Jul 2018

METAR for:KGIF (Winter Haven/Gilbert, FL, US)
Text:KGIF 171053Z AUTO 21004KT 10SM CLR 25/24 A3010 RMK AO2 SLP190 T02500239
Temperature: 25.0°C ( 77°F)
Dewpoint: 23.9°C ( 75°F) [RH = 94%]
Pressure (altimeter):30.10 inches Hg (1019.4 mb) [Sea level pressure: 1019.0 mb]
Winds:from the SSW (210 degrees) at 5 MPH (4 knots; 2.1 m/s)
Visibility:10 or more sm (16+ km)
Ceiling:at least 12,000 feet AGL
Clouds:sky clear below 12,000 feet AGL
QC Flag:automated observation with no human augmentation